Time;durP1;ratioP1;P1;durP2;ratioP2;P2;SDS_P1;SDS_P2;PMS_P1;PMS_P2;Temp;Humidity;BMP_temperature;BMP_pressure;BME280_temperature;BME280_humidity;BME280_pressure;Samples;Min_cycle;Max_cycle;Signal;HPM_P1;HPM_P2
2022/09/02 00:01:38;;;;;;;8.80;5.15;;;;;;;;;;4991291;28;20034;-70
2022/09/02 00:04:42;;;;;;;9.20;5.70;;;;;;;;;;5001451;28;20039;-70
2022/09/02 00:07:46;;;;;;;14.98;5.88;;;;;;;;;;4990941;28;20039;-70
2022/09/02 00:10:51;;;;;;;10.07;5.55;;;;;;;;;;4990693;28;20038;-70
2022/09/02 00:13:56;;;;;;;10.55;5.57;;;;;;;;;;4991253;28;20049;-70
2022/09/02 00:17:00;;;;;;;8.48;5.20;;;;;;;;;;4990425;28;20042;-70
2022/09/02 00:20:05;;;;;;;8.02;5.20;;;;;;;;;;4991040;28;20038;-70
2022/09/02 00:23:09;;;;;;;10.02;4.70;;;;;;;;;;4991178;28;20042;-70
2022/09/02 00:26:14;;;;;;;7.38;5.40;;;;;;;;;;4990968;28;20038;-70
2022/09/02 00:29:18;;;;;;;15.10;5.18;;;;;;;;;;4990648;28;20030;-70
2022/09/02 00:32:23;;;;;;;11.45;5.13;;;;;;;;;;5001280;28;20046;-70
2022/09/02 00:35:29;;;;;;;9.98;4.85;;;;;;;;;;4990689;28;20030;-70
2022/09/02 00:38:34;;;;;;;9.63;4.75;;;;;;;;;;4990986;28;20561;-70
2022/09/02 00:41:39;;;;;;;15.25;5.65;;;;;;;;;;4991261;28;20031;-70
2022/09/02 00:44:43;;;;;;;9.63;5.45;;;;;;;;;;5004900;28;20030;-70
2022/09/02 00:47:51;;;;;;;9.45;5.43;;;;;;;;;;4994667;28;20367;-70
2022/09/02 00:50:55;;;;;;;14.15;5.35;;;;;;;;;;4994260;28;20042;-70
2022/09/02 00:54:00;;;;;;;12.05;5.53;;;;;;;;;;4993610;28;20418;-70
2022/09/02 00:57:07;;;;;;;13.18;4.82;;;;;;;;;;4994193;28;20053;-70
2022/09/02 01:00:17;;;;;;;13.85;5.22;;;;;;;;;;4994628;28;20054;-70
2022/09/02 01:03:22;;;;;;;7.20;4.95;;;;;;;;;;4994304;28;20042;-70
2022/09/02 01:06:32;;;;;;;9.38;4.70;;;;;;;;;;4994008;28;20038;-70
2022/09/02 01:09:36;;;;;;;13.82;5.15;;;;;;;;;;4993680;28;20046;-70
2022/09/02 01:12:41;;;;;;;8.73;5.05;;;;;;;;;;4993005;28;20050;-70
2022/09/02 01:15:48;;;;;;;11.50;4.97;;;;;;;;;;5004587;28;20371;-70
2022/09/02 01:18:54;;;;;;;10.95;5.30;;;;;;;;;;4993474;28;20058;-70
2022/09/02 01:21:58;;;;;;;10.73;5.25;;;;;;;;;;5004411;28;20042;-70
2022/09/02 01:25:07;;;;;;;8.00;5.00;;;;;;;;;;4993922;28;20400;-70
2022/09/02 01:28:13;;;;;;;6.75;4.70;;;;;;;;;;4993860;28;20384;-70
2022/09/02 01:31:17;;;;;;;10.25;5.03;;;;;;;;;;5004115;28;20050;-70
2022/09/02 01:34:22;;;;;;;7.97;4.55;;;;;;;;;;5003872;28;20049;-70
2022/09/02 01:37:26;;;;;;;7.90;4.70;;;;;;;;;;4993520;28;20042;-70
2022/09/02 01:40:31;;;;;;;11.13;4.85;;;;;;;;;;5003810;28;20482;-70
2022/09/02 01:43:35;;;;;;;9.27;4.38;;;;;;;;;;4993443;28;20031;-70
2022/09/02 01:46:40;;;;;;;10.02;4.95;;;;;;;;;;4992412;28;20038;-70
2022/09/02 01:49:45;;;;;;;12.38;4.70;;;;;;;;;;5003670;28;20045;-70
2022/09/02 01:52:50;;;;;;;8.77;4.40;;;;;;;;;;4992822;28;20038;-70
2022/09/02 01:55:54;;;;;;;7.40;4.80;;;;;;;;;;5003657;28;20042;-70
2022/09/02 01:58:59;;;;;;;14.25;5.10;;;;;;;;;;5003327;28;20474;-70
2022/09/02 02:02:03;;;;;;;6.65;3.90;;;;;;;;;;5003594;28;20042;-70
2022/09/02 02:05:09;;;;;;;8.70;4.03;;;;;;;;;;5003876;28;20038;-70
2022/09/02 02:08:16;;;;;;;9.15;4.35;;;;;;;;;;5003361;28;20151;-70
2022/09/02 02:11:22;;;;;;;7.57;3.80;;;;;;;;;;4993168;28;20067;-70
2022/09/02 02:14:30;;;;;;;5.70;4.00;;;;;;;;;;4992918;28;20034;-70
2022/09/02 02:17:35;;;;;;;5.50;3.65;;;;;;;;;;4992681;28;20387;-70
2022/09/02 02:20:39;;;;;;;11.05;4.90;;;;;;;;;;5003275;28;20042;-70
2022/09/02 02:23:43;;;;;;;9.63;4.60;;;;;;;;;;4992544;28;20215;-70
2022/09/02 02:26:47;;;;;;;7.40;4.05;;;;;;;;;;4992827;28;20035;-70
2022/09/02 02:29:53;;;;;;;20.67;4.70;;;;;;;;;;5003096;28;20038;-69
2022/09/02 02:32:58;;;;;;;6.75;3.90;;;;;;;;;;4991700;28;20045;-70
2022/09/02 02:36:04;;;;;;;8.15;4.22;;;;;;;;;;4992800;28;20038;-69
2022/09/02 02:39:09;;;;;;;6.95;3.92;;;;;;;;;;4992248;28;20054;-69
2022/09/02 02:42:16;;;;;;;5.28;3.90;;;;;;;;;;5002509;28;20379;-70
2022/09/02 02:45:20;;;;;;;9.63;3.72;;;;;;;;;;4992047;28;20046;-70
2022/09/02 02:48:25;;;;;;;5.95;3.92;;;;;;;;;;4991231;28;20178;-70
2022/09/02 02:51:29;;;;;;;8.13;3.50;;;;;;;;;;4992195;28;20039;-69
2022/09/02 02:54:34;;;;;;;9.43;3.10;;;;;;;;;;5002603;28;20038;-70
2022/09/02 02:57:39;;;;;;;7.00;3.58;;;;;;;;;;4991911;28;20042;-69
2022/09/02 03:00:45;;;;;;;8.23;4.20;;;;;;;;;;4991282;28;20486;-69
2022/09/02 03:03:51;;;;;;;5.43;3.38;;;;;;;;;;4991026;28;20038;-69
2022/09/02 03:06:59;;;;;;;7.35;4.03;;;;;;;;;;5002705;28;20359;-70
2022/09/02 03:10:09;;;;;;;7.43;3.83;;;;;;;;;;5002231;28;20038;-70
2022/09/02 03:13:16;;;;;;;9.33;4.33;;;;;;;;;;4990999;28;20038;-69
2022/09/02 03:16:22;;;;;;;6.70;3.72;;;;;;;;;;4991951;28;20046;-70
2022/09/02 03:19:26;;;;;;;6.85;3.78;;;;;;;;;;5002300;28;20047;-70
2022/09/02 03:22:31;;;;;;;7.97;4.07;;;;;;;;;;5002280;28;20038;-70
2022/09/02 03:25:35;;;;;;;6.60;3.90;;;;;;;;;;4991538;28;20038;-70
2022/09/02 03:28:43;;;;;;;12.75;4.05;;;;;;;;;;5001893;28;20494;-70
2022/09/02 03:31:47;;;;;;;7.78;3.60;;;;;;;;;;4991594;28;20375;-70
2022/09/02 03:34:51;;;;;;;5.85;3.53;;;;;;;;;;5002325;28;20042;-70
2022/09/02 03:37:56;;;;;;;10.63;4.22;;;;;;;;;;4991379;28;20046;-69
2022/09/02 03:41:01;;;;;;;10.40;4.95;;;;;;;;;;5001658;28;20035;-70
2022/09/02 03:44:06;;;;;;;6.47;3.90;;;;;;;;;;4991652;28;20506;-70
2022/09/02 03:47:13;;;;;;;5.30;3.42;;;;;;;;;;5001889;28;20046;-70
2022/09/02 03:50:19;;;;;;;5.40;3.17;;;;;;;;;;5001542;28;20039;-70
2022/09/02 03:53:25;;;;;;;6.07;3.00;;;;;;;;;;5002053;28;20042;-70
2022/09/02 03:56:34;;;;;;;9.68;3.55;;;;;;;;;;5001938;28;20035;-70
2022/09/02 03:59:41;;;;;;;7.75;3.30;;;;;;;;;;4990472;28;20050;-70
2022/09/02 04:02:46;;;;;;;8.85;3.05;;;;;;;;;;5001868;28;20038;-69
2022/09/02 04:05:51;;;;;;;6.65;3.63;;;;;;;;;;4990697;28;20039;-69
2022/09/02 04:08:55;;;;;;;7.18;2.85;;;;;;;;;;4978994;28;20039;-70
2022/09/02 04:12:00;;;;;;;16.17;3.63;;;;;;;;;;5001791;28;20042;-70
2022/09/02 04:15:05;;;;;;;7.90;3.30;;;;;;;;;;5001986;28;20038;-70
2022/09/02 04:18:10;;;;;;;12.63;3.50;;;;;;;;;;4992767;28;20391;-69
2022/09/02 04:21:15;;;;;;;17.02;4.35;;;;;;;;;;5005217;28;20042;-70
2022/09/02 04:24:20;;;;;;;9.57;4.32;;;;;;;;;;4994222;28;20065;-69
2022/09/02 04:27:26;;;;;;;6.18;3.53;;;;;;;;;;4993727;28;20510;-69
2022/09/02 04:30:32;;;;;;;8.63;3.97;;;;;;;;;;5005146;28;20038;-69
2022/09/02 04:33:38;;;;;;;7.95;4.07;;;;;;;;;;5005299;28;20042;-70
2022/09/02 04:36:43;;;;;;;8.07;3.60;;;;;;;;;;5004994;28;20042;-70
2022/09/02 04:39:49;;;;;;;6.88;3.35;;;;;;;;;;5005060;28;20375;-70
2022/09/02 04:42:54;;;;;;;7.38;4.13;;;;;;;;;;5004827;28;20485;-70
2022/09/02 04:45:58;;;;;;;7.88;3.63;;;;;;;;;;4994541;28;20030;-70
2022/09/02 04:49:03;;;;;;;9.32;3.45;;;;;;;;;;5004643;28;20387;-70
2022/09/02 04:52:09;;;;;;;6.95;3.33;;;;;;;;;;5004896;28;20035;-70
2022/09/02 04:55:15;;;;;;;7.82;3.67;;;;;;;;;;4994519;28;20038;-69
2022/09/02 04:58:20;;;;;;;7.50;4.00;;;;;;;;;;4993317;28;20050;-70
2022/09/02 05:01:28;;;;;;;16.92;5.47;;;;;;;;;;4993449;28;20038;-69
2022/09/02 05:04:35;;;;;;;5.20;4.13;;;;;;;;;;5005032;28;20047;-70
2022/09/02 05:07:40;;;;;;;5.15;3.55;;;;;;;;;;4993224;28;20042;-70
2022/09/02 05:10:48;;;;;;;5.15;3.40;;;;;;;;;;4993044;28;20034;-70
2022/09/02 05:13:53;;;;;;;11.70;3.95;;;;;;;;;;5004301;28;20034;-69
2022/09/02 05:17:00;;;;;;;9.70;3.20;;;;;;;;;;5004330;28;20050;-69
2022/09/02 05:20:06;;;;;;;6.45;3.05;;;;;;;;;;4993775;28;20042;-70
2022/09/02 05:23:11;;;;;;;6.50;2.88;;;;;;;;;;4993667;28;20034;-70
2022/09/02 05:26:18;;;;;;;11.23;3.03;;;;;;;;;;5004503;28;20042;-69
2022/09/02 05:29:25;;;;;;;10.63;3.47;;;;;;;;;;5003657;28;20054;-68
2022/09/02 05:32:31;;;;;;;19.23;3.45;;;;;;;;;;5004369;28;20051;-68
2022/09/02 05:35:41;;;;;;;10.93;3.13;;;;;;;;;;4992652;28;20042;-69
2022/09/02 05:38:47;;;;;;;10.25;2.53;;;;;;;;;;5003824;28;20054;-69
2022/09/02 05:41:51;;;;;;;7.53;2.40;;;;;;;;;;4993666;28;20046;-69
2022/09/02 05:44:56;;;;;;;6.80;2.97;;;;;;;;;;5003946;28;20490;-72
2022/09/02 05:49:04;;;;;;;17.08;4.22;;;;;;;;;;4992985;28;20051;-71
2022/09/02 05:51:27;;;;;;;9.23;4.30;;;;;;;;;;4992309;28;20038;-72
2022/09/02 05:54:34;;;;;;;6.97;3.00;;;;;;;;;;5003537;28;20482;-71
2022/09/02 05:57:42;;;;;;;5.03;2.85;;;;;;;;;;4992383;28;20050;-72
2022/09/02 06:00:47;;;;;;;13.85;4.00;;;;;;;;;;5003615;28;20463;-71
2022/09/02 06:03:52;;;;;;;8.30;3.10;;;;;;;;;;5003907;28;20050;-70
2022/09/02 06:06:57;;;;;;;4.85;2.58;;;;;;;;;;5003379;28;20039;-70
2022/09/02 06:10:03;;;;;;;3.08;2.67;;;;;;;;;;4992860;28;20038;-70
2022/09/02 06:13:10;;;;;;;6.85;3.00;;;;;;;;;;4991864;28;20042;-71
2022/09/02 06:16:16;;;;;;;11.25;3.78;;;;;;;;;;5003108;28;20038;-70
2022/09/02 06:19:24;;;;;;;5.95;2.67;;;;;;;;;;5002529;28;20057;-71
2022/09/02 06:22:29;;;;;;;10.82;2.90;;;;;;;;;;4991740;28;20030;-70
2022/09/02 06:25:41;;;;;;;7.88;2.95;;;;;;;;;;5003239;28;20042;-72
2022/09/02 06:28:46;;;;;;;4.07;2.10;;;;;;;;;;5002692;28;20043;-73
2022/09/02 06:31:52;;;;;;;7.43;3.30;;;;;;;;;;4991515;28;20046;-74
2022/09/02 06:34:57;;;;;;;5.32;2.38;;;;;;;;;;4991575;28;20368;-68
2022/09/02 06:38:03;;;;;;;6.18;3.38;;;;;;;;;;5002446;28;20038;-68
2022/09/02 06:41:13;;;;;;;6.28;3.17;;;;;;;;;;4990287;28;20042;-68
2022/09/02 06:44:21;;;;;;;1119.47;135.43;;;;;;;;;;5002617;28;20042;-63
2022/09/02 06:47:26;;;;;;;710.90;51.42;;;;;;;;;;4991194;28;20473;-70
2022/09/02 06:50:30;;;;;;;95.93;10.65;;;;;;;;;;4992394;28;20046;-70
2022/09/02 06:53:35;;;;;;;41.60;6.65;;;;;;;;;;4991349;28;20114;-69
2022/09/02 06:56:40;;;;;;;9.05;3.35;;;;;;;;;;4992010;28;20477;-70
2022/09/02 06:59:45;;;;;;;27.88;5.05;;;;;;;;;;4991145;28;20050;-68
2022/09/02 07:05:08;;;;;;;23.25;5.38;;;;;;;;;;4991066;28;20522;-73
2022/09/02 07:06:15;;;;;;;12.23;3.38;;;;;;;;;;4990803;28;20111;-73
2022/09/02 07:09:29;;;;;;;8.80;2.80;;;;;;;;;;4990536;28;20047;-72
2022/09/02 07:12:38;;;;;;;8.27;2.75;;;;;;;;;;4992067;28;20460;-73
2022/09/02 07:15:46;;;;;;;6.28;2.72;;;;;;;;;;5002269;28;20038;-76
2022/09/02 07:18:50;;;;;;;7.90;2.33;;;;;;;;;;4991035;28;20054;-78
2022/09/02 07:21:55;;;;;;;7.63;2.47;;;;;;;;;;4991375;28;20038;-72
2022/09/02 07:25:00;;;;;;;7.07;2.50;;;;;;;;;;5001903;28;20190;-77
2022/09/02 07:28:05;;;;;;;11.82;3.15;;;;;;;;;;5001871;28;20038;-83
2022/09/02 07:31:14;;;;;;;8.18;2.33;;;;;;;;;;5001686;28;20038;-72
2022/09/02 07:34:19;;;;;;;6.90;2.30;;;;;;;;;;4990732;28;20038;-73
2022/09/02 07:37:26;;;;;;;8.93;2.50;;;;;;;;;;5001622;28;20050;-72
2022/09/02 07:40:31;;;;;;;6.22;2.40;;;;;;;;;;4990683;28;20050;-73
2022/09/02 07:43:37;;;;;;;4.28;2.25;;;;;;;;;;5001825;28;20051;-73
2022/09/02 07:46:42;;;;;;;41.20;5.25;;;;;;;;;;4990556;28;20042;-73
2022/09/02 07:49:48;;;;;;;4.28;2.00;;;;;;;;;;5001630;28;20043;-73
2022/09/02 07:52:56;;;;;;;8.23;2.40;;;;;;;;;;4981629;28;20043;-72
2022/09/02 07:56:02;;;;;;;6.18;2.00;;;;;;;;;;5005740;28;20034;-72
2022/09/02 07:59:07;;;;;;;9.25;2.33;;;;;;;;;;4994138;28;20050;-67
2022/09/02 08:02:13;;;;;;;10.98;2.80;;;;;;;;;;4994970;28;20038;-66
2022/09/02 08:05:18;;;;;;;3.67;2.03;;;;;;;;;;4994463;28;20038;-67
2022/09/02 08:08:25;;;;;;;4.55;1.70;;;;;;;;;;4995035;28;20391;-66
2022/09/02 08:11:28;;;;;;;11.43;1.90;;;;;;;;;;4995453;28;20042;-67
2022/09/02 08:14:33;;;;;;;9.90;2.58;;;;;;;;;;4995076;28;20046;-67
2022/09/02 08:17:39;;;;;;;7.63;2.05;;;;;;;;;;4994575;28;20046;-67
2022/09/02 08:20:43;;;;;;;6.25;1.85;;;;;;;;;;4994867;28;20042;-68
2022/09/02 08:23:48;;;;;;;4.60;1.58;;;;;;;;;;4994880;28;20030;-68
2022/09/02 08:26:53;;;;;;;6.15;1.90;;;;;;;;;;4994739;28;20054;-67
2022/09/02 08:30:00;;;;;;;5.25;1.75;;;;;;;;;;4994581;28;20371;-67
2022/09/02 08:33:05;;;;;;;2.97;1.80;;;;;;;;;;4994348;28;20043;-67
2022/09/02 08:36:13;;;;;;;4.45;1.70;;;;;;;;;;4994384;28;20046;-67
2022/09/02 08:39:17;;;;;;;4.13;1.60;;;;;;;;;;4994289;28;20050;-67
2022/09/02 08:42:29;;;;;;;3.00;1.80;;;;;;;;;;5004637;28;20053;-67
2022/09/02 08:45:38;;;;;;;2.05;1.48;;;;;;;;;;4994283;28;20042;-67
2022/09/02 08:48:46;;;;;;;4.80;1.77;;;;;;;;;;4994318;28;20035;-67
2022/09/02 08:51:51;;;;;;;7.05;1.52;;;;;;;;;;4994037;28;20046;-67
2022/09/02 08:54:56;;;;;;;4.88;2.13;;;;;;;;;;4994121;28;20046;-67
2022/09/02 08:58:01;;;;;;;5.35;1.83;;;;;;;;;;4994122;28;20042;-67
2022/09/02 09:01:19;;;;;;;4.60;1.92;;;;;;;;;;4994350;28;20038;-67
2022/09/02 09:04:37;;;;;;;4.45;1.88;;;;;;;;;;4993192;28;20042;-67
2022/09/02 09:08:01;;;;;;;5.82;1.63;;;;;;;;;;4993900;28;20039;-67
2022/09/02 09:11:15;;;;;;;10.30;1.88;;;;;;;;;;4993884;28;20030;-67
2022/09/02 09:14:25;;;;;;;29.67;4.07;;;;;;;;;;4993900;28;20406;-74
2022/09/02 09:17:44;;;;;;;3.97;2.20;;;;;;;;;;4993488;28;20067;-74
2022/09/02 09:20:49;;;;;;;4.63;2.22;;;;;;;;;;4994131;28;20046;-74
2022/09/02 09:23:53;;;;;;;8.18;2.50;;;;;;;;;;4993750;28;20042;-72
2022/09/02 09:26:57;;;;;;;6.63;1.83;;;;;;;;;;5004091;28;20046;-72
2022/09/02 09:30:02;;;;;;;7.18;1.90;;;;;;;;;;4993688;28;20050;-74
2022/09/02 09:33:06;;;;;;;3.45;1.77;;;;;;;;;;4993789;28;20042;-72
2022/09/02 09:36:10;;;;;;;2.47;1.70;;;;;;;;;;4992428;28;20038;-74
2022/09/02 09:39:19;;;;;;;6.88;1.90;;;;;;;;;;4993272;28;20058;-72
2022/09/02 09:42:31;;;;;;;2.75;1.70;;;;;;;;;;4993403;28;20042;-74
2022/09/02 09:45:37;;;;;;;2.88;1.55;;;;;;;;;;4993258;28;20038;-74
2022/09/02 09:48:48;;;;;;;2.60;1.40;;;;;;;;;;4993053;28;20034;-74
2022/09/02 09:51:52;;;;;;;;;;;;;;;;;;4991811;28;20042;-74
2022/09/02 09:55:15;;;;;;;4.35;1.30;;;;;;;;;;4991547;28;19933;-75
2022/09/02 09:58:20;;;;;;;4.18;1.35;;;;;;;;;;5001698;28;20054;-75
2022/09/02 10:01:26;;;;;;;4.15;1.33;;;;;;;;;;4991784;28;20350;-75
2022/09/02 10:04:32;;;;;;;3.03;1.40;;;;;;;;;;4991974;28;20234;-75
2022/09/02 10:07:39;;;;;;;1.48;1.05;;;;;;;;;;4993086;28;20043;-75
2022/09/02 10:10:56;;;;;;;1.85;0.93;;;;;;;;;;4992872;28;20038;-75
2022/09/02 10:14:01;;;;;;;2.10;1.13;;;;;;;;;;4992658;28;20039;-75
2022/09/02 10:17:08;;;;;;;2.67;1.40;;;;;;;;;;4992703;28;20046;-75
2022/09/02 10:20:49;;;;;;;3.30;1.23;;;;;;;;;;4992765;28;20050;-75
2022/09/02 10:23:53;;;;;;;3.70;1.80;;;;;;;;;;4991940;28;20355;-75
2022/09/02 10:26:58;;;;;;;4.30;1.40;;;;;;;;;;5003140;28;20043;-75
2022/09/02 10:30:05;;;;;;;4.97;1.40;;;;;;;;;;4992236;28;20038;-75
2022/09/02 10:33:16;;;;;;;1.75;1.27;;;;;;;;;;4992412;28;20047;-75
2022/09/02 10:36:39;;;;;;;3.85;1.20;;;;;;;;;;4991953;28;20038;-75
2022/09/02 10:40:02;;;;;;;2.88;1.05;;;;;;;;;;4992062;28;20387;-74
2022/09/02 10:43:07;;;;;;;4.53;1.80;;;;;;;;;;4992064;28;20042;-75
2022/09/02 10:46:21;;;;;;;3.30;1.48;;;;;;;;;;4991666;28;20379;-74
2022/09/02 10:49:29;;;;;;;2.83;1.42;;;;;;;;;;4991764;28;20038;-74
2022/09/02 10:52:39;;;;;;;5.63;1.48;;;;;;;;;;4991704;28;20046;-74
2022/09/02 10:55:49;;;;;;;4.65;1.40;;;;;;;;;;4992006;28;20138;-72
2022/09/02 10:59:00;;;;;;;2.63;1.73;;;;;;;;;;4991499;28;20046;-72
2022/09/02 11:02:04;;;;;;;4.10;1.40;;;;;;;;;;4991790;28;20435;-70
2022/09/02 11:05:14;;;;;;;4.22;1.50;;;;;;;;;;4991718;28;20042;-70
2022/09/02 11:08:18;;;;;;;4.75;2.10;;;;;;;;;;4992134;28;20038;-70
2022/09/02 11:11:26;;;;;;;3.60;1.30;;;;;;;;;;4991829;28;20042;-70
2022/09/02 11:14:33;;;;;;;4.38;1.42;;;;;;;;;;4992015;28;20042;-71
2022/09/02 11:17:49;;;;;;;2.28;1.42;;;;;;;;;;4991830;28;20054;-70
2022/09/02 11:20:59;;;;;;;2.85;1.60;;;;;;;;;;4991822;28;20058;-70
2022/09/02 11:24:05;;;;;;;2.13;1.60;;;;;;;;;;4991579;28;20379;-70
2022/09/02 11:27:19;;;;;;;3.10;1.50;;;;;;;;;;4991491;28;20042;-70
2022/09/02 11:30:26;;;;;;;2.67;1.63;;;;;;;;;;4991647;28;20050;-71
2022/09/02 11:33:51;;;;;;;3.95;1.83;;;;;;;;;;4991126;28;20038;-70
2022/09/02 11:36:55;;;;;;;5.45;1.80;;;;;;;;;;4996103;28;20046;-71
2022/09/02 11:40:05;;;;;;;4.68;1.70;;;;;;;;;;5002056;28;20050;-70
2022/09/02 11:43:09;;;;;;;2.88;1.40;;;;;;;;;;4991553;28;20039;-71
2022/09/02 11:46:30;;;;;;;3.53;1.60;;;;;;;;;;4991508;28;20039;-70
2022/09/02 11:49:34;;;;;;;3.47;1.87;;;;;;;;;;4991653;28;20382;-71
2022/09/02 11:52:45;;;;;;;4.43;1.98;;;;;;;;;;4990736;28;20498;-70
2022/09/02 11:55:55;;;;;;;2.88;1.42;;;;;;;;;;4991544;28;20039;-70
2022/09/02 11:58:59;;;;;;;2.38;1.20;;;;;;;;;;4991189;28;20050;-70
2022/09/02 12:02:04;;;;;;;3.17;1.27;;;;;;;;;;4991180;28;20043;-70
2022/09/02 12:05:34;;;;;;;6.45;1.50;;;;;;;;;;4991204;28;20042;-70
2022/09/02 12:08:41;;;;;;;4.93;1.40;;;;;;;;;;4991288;28;20359;-70
2022/09/02 12:11:47;;;;;;;3.42;1.23;;;;;;;;;;4991936;28;20466;-70
2022/09/02 12:15:03;;;;;;;2.33;1.73;;;;;;;;;;4991079;28;20387;-70
2022/09/02 12:18:20;;;;;;;4.43;1.42;;;;;;;;;;4990847;28;20068;-70
2022/09/02 12:21:26;;;;;;;2.03;1.30;;;;;;;;;;4991593;28;20375;-70
2022/09/02 12:24:47;;;;;;;3.67;1.60;;;;;;;;;;4991508;28;20395;-70
2022/09/02 12:28:13;;;;;;;1.50;1.33;;;;;;;;;;4991145;28;20046;-68
2022/09/02 12:31:41;;;;;;;4.18;1.35;;;;;;;;;;4991367;28;20046;-67
2022/09/02 12:34:51;;;;;;;5.75;1.80;;;;;;;;;;4991073;28;20490;-70
2022/09/02 12:37:56;;;;;;;1.88;1.40;;;;;;;;;;4991837;28;20034;-70
2022/09/02 12:41:02;;;;;;;5.05;1.58;;;;;;;;;;5004841;28;20050;-72
2022/09/02 12:44:23;;;;;;;3.53;1.92;;;;;;;;;;4994400;28;20038;-73
2022/09/02 12:47:29;;;;;;;2.33;1.70;;;;;;;;;;4994171;28;20646;-73
2022/09/02 12:50:54;;;;;;;3.22;1.48;;;;;;;;;;4994694;28;20038;-74
2022/09/02 12:53:59;;;;;;;4.32;1.60;;;;;;;;;;4994302;28;20038;-74
2022/09/02 12:57:04;;;;;;;2.97;1.70;;;;;;;;;;4994390;28;20046;-71
2022/09/02 13:00:12;;;;;;;2.78;1.55;;;;;;;;;;4994307;28;20050;-71
2022/09/02 13:03:27;;;;;;;4.03;1.90;;;;;;;;;;4994460;28;20053;-74
2022/09/02 13:06:34;;;;;;;4.28;1.67;;;;;;;;;;4993681;28;20038;-74
2022/09/02 13:09:54;;;;;;;5.90;1.98;;;;;;;;;;4992929;28;20038;-74
2022/09/02 13:13:11;;;;;;;1.80;1.58;;;;;;;;;;4992908;28;20042;-74
2022/09/02 13:16:19;;;;;;;2.80;1.90;;;;;;;;;;4992110;28;20042;-73
2022/09/02 13:19:32;;;;;;;7.28;2.03;;;;;;;;;;4992768;28;20239;-72
2022/09/02 13:22:55;;;;;;;3.30;1.50;;;;;;;;;;4993840;28;20486;-73
2022/09/02 13:26:18;;;;;;;2.10;1.63;;;;;;;;;;4993960;28;20439;-74
2022/09/02 13:29:23;;;;;;;5.43;2.00;;;;;;;;;;4993766;28;20050;-73
2022/09/02 13:32:31;;;;;;;3.90;1.73;;;;;;;;;;4993765;28;20035;-74
2022/09/02 13:35:40;;;;;;;1.85;1.42;;;;;;;;;;4993978;28;20042;-73
2022/09/02 13:38:44;;;;;;;3.35;1.88;;;;;;;;;;4993321;28;20050;-72
2022/09/02 13:41:49;;;;;;;4.50;1.40;;;;;;;;;;4993500;28;20035;-71
2022/09/02 13:45:19;;;;;;;2.50;1.55;;;;;;;;;;4993725;28;20403;-71
2022/09/02 13:48:23;;;;;;;3.42;1.80;;;;;;;;;;4995238;28;20046;-71
2022/09/02 13:51:27;;;;;;;4.13;1.90;;;;;;;;;;4993574;28;20039;-69
2022/09/02 13:54:33;;;;;;;5.00;1.63;;;;;;;;;;4993453;28;20035;-72
2022/09/02 13:57:37;;;;;;;3.15;1.58;;;;;;;;;;4992695;28;20038;-71
2022/09/02 14:00:42;;;;;;;2.83;1.65;;;;;;;;;;4992506;28;20058;-71
2022/09/02 14:03:50;;;;;;;5.38;1.90;;;;;;;;;;4993221;28;20043;-71
2022/09/02 14:06:54;;;;;;;7.55;1.55;;;;;;;;;;4992804;28;20042;-74
2022/09/02 14:10:01;;;;;;;1.85;1.10;;;;;;;;;;4991487;28;20039;-72
2022/09/02 14:13:06;;;;;;;2.40;1.50;;;;;;;;;;4991424;28;20386;-74
2022/09/02 14:16:24;;;;;;;5.00;2.08;;;;;;;;;;4990954;28;20030;-73
2022/09/02 14:19:29;;;;;;;4.72;1.60;;;;;;;;;;4991233;28;20407;-72
2022/09/02 14:22:34;;;;;;;8.32;1.90;;;;;;;;;;4991508;28;20034;-72
2022/09/02 14:25:48;;;;;;;2.92;1.23;;;;;;;;;;4992736;28;20502;-74
2022/09/02 14:28:53;;;;;;;9.80;1.85;;;;;;;;;;4992739;28;20038;-69
2022/09/02 14:32:10;;;;;;;6.45;1.38;;;;;;;;;;4992808;28;20039;-72
2022/09/02 14:35:20;;;;;;;10.75;1.98;;;;;;;;;;4994292;28;20097;-76
2022/09/02 14:38:25;;;;;;;4.28;1.50;;;;;;;;;;4992737;28;20049;-75
2022/09/02 14:41:35;;;;;;;2.70;1.60;;;;;;;;;;4992889;28;20486;-71
2022/09/02 14:44:39;;;;;;;4.03;1.30;;;;;;;;;;4992637;28;20034;-73
2022/09/02 14:47:46;;;;;;;12.35;2.00;;;;;;;;;;4992258;28;20293;-75
2022/09/02 14:50:57;;;;;;;4.28;1.65;;;;;;;;;;4992263;28;20039;-72
2022/09/02 14:54:02;;;;;;;3.25;1.30;;;;;;;;;;4992500;28;20042;-74
2022/09/02 14:57:28;;;;;;;4.07;1.40;;;;;;;;;;4992118;28;20479;-74
2022/09/02 15:00:32;;;;;;;1.85;1.10;;;;;;;;;;4991550;28;20050;-75
2022/09/02 15:03:37;;;;;;;7.88;1.30;;;;;;;;;;4992327;28;20031;-73
2022/09/02 15:06:42;;;;;;;1.90;1.20;;;;;;;;;;4991614;28;20042;-75
2022/09/02 15:09:50;;;;;;;8.90;1.70;;;;;;;;;;4992127;28;20474;-74
2022/09/02 15:12:56;;;;;;;12.93;2.00;;;;;;;;;;4991361;28;20034;-72
2022/09/02 15:16:00;;;;;;;4.97;2.50;;;;;;;;;;4991849;28;20394;-76
2022/09/02 15:19:05;;;;;;;11.68;4.78;;;;;;;;;;4991778;28;20379;-74
2022/09/02 15:22:09;;;;;;;6.50;2.47;;;;;;;;;;4992031;28;20065;-73
2022/09/02 15:25:13;;;;;;;7.10;2.72;;;;;;;;;;4991819;28;20050;-72
2022/09/02 15:28:18;;;;;;;8.57;3.67;;;;;;;;;;4991843;28;20042;-74
2022/09/02 15:31:22;;;;;;;10.52;4.00;;;;;;;;;;4992019;28;20038;-74
2022/09/02 15:34:26;;;;;;;16.25;3.58;;;;;;;;;;4991740;28;20058;-71
2022/09/02 15:37:33;;;;;;;6.85;2.00;;;;;;;;;;4991324;28;20046;-73
2022/09/02 15:40:38;;;;;;;6.07;1.75;;;;;;;;;;4991367;28;20051;-75
2022/09/02 15:43:42;;;;;;;2.78;1.83;;;;;;;;;;4991711;28;20038;-74
2022/09/02 15:46:47;;;;;;;6.95;1.70;;;;;;;;;;4991588;28;20047;-73
2022/09/02 15:49:52;;;;;;;8.32;1.60;;;;;;;;;;4991569;28;20058;-72
2022/09/02 15:52:56;;;;;;;5.15;1.70;;;;;;;;;;4991559;28;20039;-73
2022/09/02 15:56:01;;;;;;;1.95;1.20;;;;;;;;;;4991203;28;20039;-74
2022/09/02 15:59:10;;;;;;;7.18;1.35;;;;;;;;;;4991140;28;20046;-78
2022/09/02 16:02:14;;;;;;;1.88;1.20;;;;;;;;;;4991627;28;20042;-73
2022/09/02 16:05:20;;;;;;;3.40;1.50;;;;;;;;;;4991390;28;20039;-74
2022/09/02 16:08:24;;;;;;;2.78;1.60;;;;;;;;;;4991006;28;20467;-75
2022/09/02 16:11:28;;;;;;;6.28;1.60;;;;;;;;;;4990851;28;20038;-69
2022/09/02 16:14:33;;;;;;;8.57;1.60;;;;;;;;;;4994473;28;20030;-77
2022/09/02 16:17:38;;;;;;;5.50;1.52;;;;;;;;;;4994481;28;20042;-72
2022/09/02 16:20:42;;;;;;;4.72;1.80;;;;;;;;;;4994523;28;20042;-72
2022/09/02 16:23:48;;;;;;;4.22;1.23;;;;;;;;;;4994436;28;20034;-72
2022/09/02 16:26:53;;;;;;;10.32;3.30;;;;;;;;;;4994783;28;20034;-73
2022/09/02 16:29:58;;;;;;;7.35;2.17;;;;;;;;;;4994230;28;20035;-75
2022/09/02 16:33:03;;;;;;;7.30;1.92;;;;;;;;;;4994614;28;20027;-76
2022/09/02 16:36:08;;;;;;;3.17;1.33;;;;;;;;;;4994551;28;20502;-76
2022/09/02 16:39:14;;;;;;;2.25;1.50;;;;;;;;;;4994333;28;20050;-75
2022/09/02 16:42:19;;;;;;;9.40;2.42;;;;;;;;;;4995161;28;20050;-75
2022/09/02 16:45:23;;;;;;;4.40;1.60;;;;;;;;;;4994648;28;20494;-75
2022/09/02 16:48:29;;;;;;;3.35;1.98;;;;;;;;;;4994448;28;20038;-75
2022/09/02 16:51:33;;;;;;;2.72;1.15;;;;;;;;;;4994790;28;20034;-75
2022/09/02 16:54:37;;;;;;;4.25;1.30;;;;;;;;;;4994197;28;20046;-76
2022/09/02 16:57:42;;;;;;;4.00;1.50;;;;;;;;;;4994159;28;20038;-76
2022/09/02 17:00:46;;;;;;;3.70;2.20;;;;;;;;;;4993571;28;20042;-75
2022/09/02 17:03:51;;;;;;;4.70;1.83;;;;;;;;;;4993888;28;20371;-75
2022/09/02 17:06:55;;;;;;;5.45;2.25;;;;;;;;;;4993822;28;20218;-75
2022/09/02 17:09:59;;;;;;;6.38;2.20;;;;;;;;;;4993569;28;20396;-75
2022/09/02 17:13:03;;;;;;;7.68;3.05;;;;;;;;;;4993832;28;20075;-73
2022/09/02 17:16:08;;;;;;;10.63;1.83;;;;;;;;;;5003364;28;20038;-72
2022/09/02 17:19:15;;;;;;;4.75;1.83;;;;;;;;;;4993229;28;20043;-73
2022/09/02 17:22:19;;;;;;;10.70;2.10;;;;;;;;;;5004342;28;20034;-73
2022/09/02 17:25:23;;;;;;;4.75;2.90;;;;;;;;;;5003535;28;20042;-73
2022/09/02 17:28:28;;;;;;;9.50;2.60;;;;;;;;;;4992805;28;20046;-72
2022/09/02 17:31:32;;;;;;;8.77;3.08;;;;;;;;;;4993634;28;20038;-72
2022/09/02 17:34:37;;;;;;;7.93;2.40;;;;;;;;;;5003974;28;20393;-72
2022/09/02 17:37:41;;;;;;;4.90;2.05;;;;;;;;;;4993580;28;20466;-72
2022/09/02 17:44:08;;;;;;;5.25;2.00;;;;;;;;;;4993095;28;20038;-73
2022/09/02 17:47:18;;;;;;;5.00;2.45;;;;;;;;;;4993475;28;20470;-73
2022/09/02 17:50:23;;;;;;;3.67;1.85;;;;;;;;;;5003502;28;20042;-73
2022/09/02 17:53:27;;;;;;;5.90;2.58;;;;;;;;;;4993452;28;20372;-73
2022/09/02 17:56:49;;;;;;;6.32;2.63;;;;;;;;;;4993102;28;20046;-73
2022/09/02 17:59:55;;;;;;;;;;;;;;;;;;4993448;28;20058;-73
2022/09/02 18:02:59;;;;;;;6.68;2.75;;;;;;;;;;4992576;28;19917;-73
2022/09/02 18:06:10;;;;;;;10.75;2.42;;;;;;;;;;4992885;28;20046;-72
2022/09/02 18:09:14;;;;;;;7.90;1.83;;;;;;;;;;5003334;28;20053;-73
2022/09/02 18:12:18;;;;;;;7.45;1.90;;;;;;;;;;4992716;28;20398;-72
2022/09/02 18:15:23;;;;;;;14.07;3.75;;;;;;;;;;4991753;28;20064;-73
2022/09/02 18:18:27;;;;;;;8.18;2.40;;;;;;;;;;4991249;28;20051;-72
2022/09/02 18:21:54;;;;;;;6.40;2.72;;;;;;;;;;4992400;28;20522;-72
2022/09/02 18:25:15;;;;;;;7.82;2.50;;;;;;;;;;4993062;28;20137;-72
2022/09/02 18:28:25;;;;;;;8.30;2.83;;;;;;;;;;4992345;28;20038;-72
2022/09/02 18:31:52;;;;;;;10.27;2.65;;;;;;;;;;4992054;28;20046;-72
2022/09/02 18:34:56;;;;;;;7.55;2.65;;;;;;;;;;4991531;28;20042;-72
2022/09/02 18:38:07;;;;;;;8.07;3.78;;;;;;;;;;4992458;28;20609;-72
2022/09/02 18:41:15;;;;;;;11.50;2.80;;;;;;;;;;4992219;28;20050;-72
2022/09/02 18:44:30;;;;;;;9.98;2.78;;;;;;;;;;4992116;28;20455;-72